Friday, January 18, 2019, 2:37 AM EST
Back to Local

KMHT, Manchester Airport

Location: Manchester, NH, United States Lat: 42.933
Local Time: 2:37 AM EST ( 7:37 GMT) Lon: -71.433
Time Zone: US/Eastern Elev: 232 ft

Show me the last for .
Show Decoded

2019-01-18 01:53 METAR KMHT 180653Z 00000KT 10SM OVC080 M05/M15 A3024 RMK AO2 SLP261 T10501150 =
2019-01-18 00:53 METAR KMHT 180553Z 00000KT 10SM OVC100 M06/M15 A3026 RMK AO2 SLP267 T10561150
                 11050 21061 58017 =
2019-01-17 23:53 METAR KMHT 180453Z 00000KT 10SM OVC090 M05/M17 A3028 RMK AO2 SLP276 T10501172
                 410331117 =
2019-01-17 22:53 METAR KMHT 180353Z 00000KT 10SM OVC100 M06/M17 A3030 RMK AO2 SLP282 T10561167 =
2019-01-17 21:53 METAR KMHT 180253Z 00000KT 10SM OVC110 M06/M17 A3031 RMK AO2 SLP286 T10611172
                 56003 =
2019-01-17 20:53 METAR KMHT 180153Z 00000KT 10SM OVC130 M06/M18 A3031 RMK AO2 SLP286 T10561183 =
2019-01-17 19:53 METAR KMHT 180053Z 00000KT 10SM OVC140 M06/M19 A3032 RMK AO2 SLP288 T10561189 =
2019-01-17 18:53 METAR KMHT 172353Z 06003KT 10SM BKN120 OVC250 M06/M19 A3032 RMK AO2 SLP289
                 T10561194 11033 21056 50004 =
2019-01-17 17:53 METAR KMHT 172253Z 00000KT 10SM SCT130 BKN170 OVC250 M05/M19 A3032 RMK AO2
                 SLP289 T10501189 =
2019-01-17 16:53 METAR KMHT 172153Z 00000KT 10SM FEW140 BKN250 M05/M19 A3031 RMK AO2 SLP285
                 T10501194 =
2019-01-17 15:53 METAR KMHT 172053Z 04006KT 10SM BKN250 M04/M20 A3031 RMK AO2 SLP283 T10441200
                 56011 =
2019-01-17 14:53 METAR KMHT 171953Z 00000KT 10SM BKN250 M03/M21 A3032 RMK AO2 SLP288 T10331211 =
2019-01-17 13:53 METAR KMHT 171853Z VRB03KT 10SM FEW150 SCT250 M04/M21 A3032 RMK AO2 SLP289
                 T10391211 =
2019-01-17 12:53 METAR KMHT 171753Z 02007KT 10SM FEW250 M05/M22 A3034 RMK AO2 SLP294 T10501217
                 11050 21117 58023 =
2019-01-17 11:53 METAR KMHT 171653Z 30007KT 10SM FEW250 M07/M22 A3036 RMK AO2 SLP303 T10671217 =
2019-01-17 10:53 METAR KMHT 171553Z 33010KT 10SM FEW250 M07/M21 A3040 RMK AO2 SLP315 T10721206 =
2019-01-17 09:53 METAR KMHT 171453Z 33009KT 10SM FEW250 M09/M20 A3041 RMK AO2 SLP318 T10941200
                 53020 =
2019-01-17 08:53 METAR KMHT 171353Z 33007KT 10SM FEW250 M11/M19 A3038 RMK AO2 SLP310 T11061194 =
2019-01-17 07:53 METAR KMHT 171253Z 32009KT 10SM FEW250 M12/M19 A3036 RMK AO2 SLP302 T11171194 =
2019-01-17 06:53 METAR KMHT 171153Z 34008KT 10SM CLR M12/M19 A3035 RMK AO2 SLP297 T11171194 11056
                 21117 51020 =
2019-01-17 05:53 METAR KMHT 171053Z 33005KT 10SM CLR M11/M18 A3034 RMK AO2 SLP293 T11111183 =
2019-01-17 04:53 METAR KMHT 170953Z 32009KT 10SM CLR M10/M18 A3031 RMK AO2 SLP284 T11001183 =
2019-01-17 03:53 METAR KMHT 170853Z 34009KT 10SM CLR M09/M18 A3029 RMK AO2 SLP276 T10941178 51035
                 =
2019-01-17 02:53 METAR KMHT 170753Z 34009KT 10SM CLR M08/M17 A3027 RMK AO2 SLP269 T10831172 =

Support USWX by starting your Amazon purchase here.